Time;durP1;ratioP1;P1;durP2;ratioP2;P2;SDS_P1;SDS_P2;PMS_P1;PMS_P2;Temp;Humidity;BMP_temperature;BMP_pressure;BME280_temperature;BME280_humidity;BME280_pressure;Samples;Min_cycle;Max_cycle;Signal;HPM_P1;HPM_P2
2024/03/09 00:00:32;;;;;;;47.40;18.80;;;;;;;7.86;38.06;100196.00;108091;1254;60257;-66
2024/03/09 00:03:00;;;;;;;52.30;20.90;;;;;;;7.87;38.04;100189.84;108097;1253;71528;-66
2024/03/09 00:05:28;;;;;;;40.60;18.30;;;;;;;7.91;37.97;100190.26;108159;1254;71887;-67
2024/03/09 00:07:57;;;;;;;53.30;21.60;;;;;;;7.89;37.96;100190.14;108078;1254;70895;-67
2024/03/09 00:10:28;;;;;;;57.20;21.30;;;;;;;7.97;37.67;100189.58;108190;1253;61684;-67
2024/03/09 00:12:58;;;;;;;159.70;39.00;;;;;;;7.94;37.89;100187.20;108192;1253;59048;-66
2024/03/09 00:15:27;;;;;;;163.70;37.10;;;;;;;7.87;37.81;100185.30;108208;1253;75224;-67
2024/03/09 00:17:55;;;;;;;85.80;23.30;;;;;;;7.93;37.86;100188.82;108155;1254;70330;-67
2024/03/09 00:20:34;;;;;;;82.00;23.60;;;;;;;8.04;37.81;100187.31;108247;1254;72482;-67
2024/03/09 00:23:08;;;;;;;79.00;24.00;;;;;;;8.02;37.80;100181.76;108172;1255;61678;-66
2024/03/09 00:25:37;;;;;;;58.50;19.30;;;;;;;8.10;37.53;100185.76;108077;1258;61323;-67
2024/03/09 00:28:06;;;;;;;53.20;20.50;;;;;;;8.27;37.67;100184.42;108056;1254;73142;-65
2024/03/09 00:30:34;;;;;;;51.20;20.10;;;;;;;8.32;37.69;100183.61;108161;1254;69495;-65
2024/03/09 00:33:07;;;;;;;51.20;19.70;;;;;;;8.16;38.08;100182.45;108209;1254;70751;-66
2024/03/09 00:35:35;;;;;;;62.10;23.90;;;;;;;8.19;37.93;100180.81;108151;1254;61743;-66
2024/03/09 00:38:03;;;;;;;54.40;19.90;;;;;;;8.16;37.99;100180.88;108180;1254;59921;-66
2024/03/09 00:40:32;;;;;;;54.40;20.10;;;;;;;8.29;37.77;100179.84;107892;1255;71832;-66
2024/03/09 00:43:04;;;;;;;47.60;19.60;;;;;;;8.17;37.91;100178.20;107800;1256;67776;-66
2024/03/09 00:45:32;;;;;;;45.10;17.90;;;;;;;8.20;37.88;100181.28;107854;1256;71716;-66
2024/03/09 00:47:59;;;;;;;44.70;18.50;;;;;;;8.21;37.92;100179.35;107827;1256;60423;-66
2024/03/09 00:50:27;;;;;;;45.90;20.40;;;;;;;8.24;37.92;100177.86;107840;1256;59653;-66
2024/03/09 00:52:55;;;;;;;38.90;16.30;;;;;;;8.29;38.11;100178.79;107830;1255;73161;-67
2024/03/09 00:55:24;;;;;;;52.80;18.80;;;;;;;8.40;37.57;100178.67;107912;1256;69536;-67
2024/03/09 00:57:53;;;;;;;48.40;19.10;;;;;;;8.45;37.39;100178.20;107822;1256;72906;-67
2024/03/09 01:00:23;;;;;;;46.10;19.00;;;;;;;8.33;37.64;100179.36;107890;1256;61719;-66
2024/03/09 01:02:52;;;;;;;41.50;17.60;;;;;;;8.41;37.41;100185.31;107839;1256;59955;-66
2024/03/09 01:05:22;;;;;;;42.50;16.80;;;;;;;8.49;37.42;100188.06;107876;1257;71877;-66
2024/03/09 01:07:51;;;;;;;53.00;19.20;;;;;;;8.33;37.38;100185.00;107815;1257;68691;-67
2024/03/09 01:10:20;;;;;;;52.10;19.40;;;;;;;8.19;37.81;100187.98;107845;1256;70815;-67
2024/03/09 01:12:48;;;;;;;56.50;20.00;;;;;;;8.25;37.55;100182.05;107814;1257;60660;-65
2024/03/09 01:15:16;;;;;;;44.20;17.80;;;;;;;8.17;37.65;100184.34;107795;1255;59465;-66
2024/03/09 01:17:44;;;;;;;40.20;15.10;;;;;;;8.17;37.54;100180.49;107838;1257;73450;-68
2024/03/09 01:20:12;;;;;;;40.30;16.50;;;;;;;8.16;37.73;100181.23;107827;1256;69580;-66
2024/03/09 01:22:44;;;;;;;45.30;17.90;;;;;;;8.20;37.44;100185.67;107761;1260;72151;-66
2024/03/09 01:25:13;;;;;;;55.20;19.30;;;;;;;8.18;37.62;100182.41;107765;1257;61674;-66
2024/03/09 01:27:41;;;;;;;55.00;19.80;;;;;;;8.09;37.71;100183.52;107814;1256;60123;-67
2024/03/09 01:30:09;;;;;;;43.60;18.20;;;;;;;8.08;37.67;100181.95;107875;1256;72865;-66
2024/03/09 01:32:43;;;;;;;51.40;18.30;;;;;;;8.10;37.84;100184.18;107796;1256;68283;-66
2024/03/09 01:35:12;;;;;;;52.40;19.30;;;;;;;8.11;37.74;100181.88;107956;1256;70590;-66
2024/03/09 01:37:41;;;;;;;42.40;16.90;;;;;;;8.01;38.20;100182.14;107835;1256;60436;-66
2024/03/09 01:40:10;;;;;;;54.90;20.50;;;;;;;8.03;38.32;100182.45;108118;1254;59649;-67
2024/03/09 01:42:38;;;;;;;50.30;19.20;;;;;;;8.04;38.15;100184.86;108244;1253;70601;-66
2024/03/09 01:45:07;;;;;;;46.10;18.10;;;;;;;8.15;37.93;100186.14;108202;1254;70342;-66
2024/03/09 01:47:35;;;;;;;45.20;19.00;;;;;;;8.26;37.53;100187.10;108096;1254;72799;-66
2024/03/09 01:50:02;;;;;;;38.60;16.50;;;;;;;8.23;37.69;100187.35;108049;1253;61675;-66
2024/03/09 01:52:31;;;;;;;34.70;15.60;;;;;;;8.17;37.30;100187.48;108205;1254;59632;-64
2024/03/09 01:55:04;;;;;;;40.00;16.20;;;;;;;8.20;37.32;100188.28;108135;1253;73162;-66
2024/03/09 01:57:32;;;;;;;34.10;15.10;;;;;;;8.23;37.19;100185.06;107941;1254;70135;-66
2024/03/09 02:00:01;;;;;;;36.90;16.20;;;;;;;8.21;37.50;100187.20;108040;1254;71742;-66
2024/03/09 02:02:32;;;;;;;38.50;16.10;;;;;;;8.16;37.40;100184.89;108026;1254;60437;-66
2024/03/09 02:05:03;;;;;;;42.50;17.20;;;;;;;8.10;37.66;100183.66;108141;1252;59058;-66
2024/03/09 02:07:33;;;;;;;;;;;;;;;8.06;37.49;100180.61;108073;1254;73003;-67
2024/03/09 02:10:00;;;;;;;39.00;14.80;;;;;;;7.98;37.81;100181.16;108164;1254;70208;-67
2024/03/09 02:12:28;;;;;;;43.30;16.40;;;;;;;7.94;37.90;100185.98;108118;1253;74448;-66
2024/03/09 02:14:56;;;;;;;43.40;16.20;;;;;;;7.92;37.91;100185.36;107950;1253;61260;-66
2024/03/09 02:17:24;;;;;;;38.90;15.70;;;;;;;7.94;37.80;100188.79;108136;1253;59080;-66
2024/03/09 02:19:51;;;;;;;42.00;17.80;;;;;;;7.86;37.70;100188.64;108096;1254;73080;-66
2024/03/09 02:22:21;;;;;;;43.40;18.90;;;;;;;7.85;37.71;100184.65;108111;1253;70490;-66
2024/03/09 02:24:54;;;;;;;37.20;17.00;;;;;;;7.80;37.60;100185.46;108061;1254;71068;-66
2024/03/09 02:27:25;;;;;;;41.10;17.30;;;;;;;7.65;37.89;100186.54;107997;1254;60723;-66
2024/03/09 02:29:53;;;;;;;38.20;17.20;;;;;;;7.55;37.97;100186.75;108164;1253;59660;-64
2024/03/09 02:32:21;;;;;;;35.60;16.20;;;;;;;7.47;38.06;100188.52;108071;1253;72183;-66
2024/03/09 02:34:49;;;;;;;55.80;22.60;;;;;;;7.39;37.95;100190.29;108146;1254;68718;-67
2024/03/09 02:37:20;;;;;;;38.70;17.50;;;;;;;7.41;37.86;100190.95;108112;1258;71425;-67
2024/03/09 02:39:48;;;;;;;36.20;15.90;;;;;;;7.32;38.14;100194.11;108073;1254;60591;-66
2024/03/09 02:42:15;;;;;;;33.80;14.70;;;;;;;7.10;38.45;100194.77;108081;1254;59554;-66
2024/03/09 02:44:43;;;;;;;33.90;16.30;;;;;;;7.08;38.35;100199.36;108066;1253;71871;-66
2024/03/09 02:47:10;;;;;;;40.70;17.50;;;;;;;7.00;38.44;100199.55;108113;1254;68972;-64
2024/03/09 02:49:38;;;;;;;36.50;15.30;;;;;;;6.89;38.54;100200.10;108182;1258;71481;-66
2024/03/09 02:52:08;;;;;;;41.20;18.30;;;;;;;6.97;38.57;100198.89;108156;1253;60915;-66
2024/03/09 02:54:37;;;;;;;38.90;16.30;;;;;;;6.96;38.31;100198.04;108207;1257;60292;-65
2024/03/09 02:57:08;;;;;;;49.00;20.40;;;;;;;6.85;38.93;100197.73;108166;1254;72648;-63
2024/03/09 02:59:36;;;;;;;51.60;22.30;;;;;;;6.81;38.67;100197.81;108139;1253;68669;-65
2024/03/09 03:02:14;;;;;;;41.50;17.70;;;;;;;6.75;38.95;100195.69;108120;1254;71282;-66
2024/03/09 03:04:42;;;;;;;38.30;16.70;;;;;;;6.70;38.89;100193.16;108109;1254;60378;-67
2024/03/09 03:07:10;;;;;;;41.10;18.30;;;;;;;6.74;38.98;100192.73;108040;1254;60361;-65
2024/03/09 03:09:37;;;;;;;39.40;16.80;;;;;;;6.76;39.11;100191.48;108173;1254;72634;-65
2024/03/09 03:12:07;;;;;;;36.60;18.00;;;;;;;6.67;39.08;100196.54;108198;1257;68933;-66
2024/03/09 03:14:39;;;;;;;39.30;18.70;;;;;;;6.68;38.95;100194.23;108242;1254;71965;-64
2024/03/09 03:17:07;;;;;;;41.20;17.80;;;;;;;6.65;39.12;100198.86;108116;1254;60799;-65
2024/03/09 03:19:35;;;;;;;41.10;18.20;;;;;;;6.58;39.08;100199.15;108120;1253;60312;-65
2024/03/09 03:22:05;;;;;;;45.10;18.70;;;;;;;6.51;39.02;100200.86;108217;1253;76094;-65
2024/03/09 03:24:32;;;;;;;43.10;19.40;;;;;;;6.46;39.08;100201.98;108095;1254;71062;-66
2024/03/09 03:27:00;;;;;;;51.30;21.30;;;;;;;6.41;39.15;100200.36;108135;1253;71242;-66
2024/03/09 03:29:27;;;;;;;54.50;21.90;;;;;;;6.37;39.34;100197.81;108124;1253;60523;-66
2024/03/09 03:31:55;;;;;;;67.20;26.30;;;;;;;6.34;39.34;100191.23;108136;1253;60960;-66
2024/03/09 03:34:25;;;;;;;59.30;23.70;;;;;;;6.26;39.56;100187.21;108150;1253;72041;-66
2024/03/09 03:36:56;;;;;;;44.70;19.70;;;;;;;6.22;39.57;100188.16;108231;1254;70292;-65
2024/03/09 03:39:27;;;;;;;48.80;20.40;;;;;;;6.27;39.72;100189.27;108159;1254;72699;-64
2024/03/09 03:41:55;;;;;;;44.30;18.60;;;;;;;6.36;39.58;100186.14;108169;1253;61087;-66
2024/03/09 03:44:23;;;;;;;45.50;19.00;;;;;;;6.36;39.54;100187.37;108171;1253;60243;-63
2024/03/09 03:46:51;;;;;;;43.90;18.10;;;;;;;6.36;39.67;100186.84;108165;1254;73900;-64
2024/03/09 03:49:19;;;;;;;47.90;18.70;;;;;;;6.32;39.53;100187.96;108100;1252;69987;-66
2024/03/09 03:51:47;;;;;;;46.80;18.70;;;;;;;6.05;40.13;100187.23;108170;1252;72943;-65
2024/03/09 03:54:15;;;;;;;43.60;18.10;;;;;;;5.91;40.03;100190.05;108022;1252;61657;-66
2024/03/09 03:56:43;;;;;;;46.40;19.30;;;;;;;6.02;39.76;100191.64;108055;1253;60422;-67
2024/03/09 03:59:10;;;;;;;44.10;19.70;;;;;;;6.07;39.69;100190.86;108160;1254;73855;-66
2024/03/09 04:01:39;;;;;;;34.70;16.30;;;;;;;6.07;39.71;100190.33;108117;1254;68689;-65
2024/03/09 04:04:07;;;;;;;44.90;19.10;;;;;;;6.00;39.80;100185.40;108166;1253;71634;-66
2024/03/09 04:06:34;;;;;;;43.50;19.40;;;;;;;5.95;39.80;100183.73;108154;1254;61640;-69
2024/03/09 04:09:02;;;;;;;39.90;18.20;;;;;;;5.95;40.19;100186.18;108144;1253;60089;-66
2024/03/09 04:11:33;;;;;;;46.90;19.90;;;;;;;5.83;40.17;100188.62;108207;1252;72623;-67
2024/03/09 04:14:01;;;;;;;49.10;19.50;;;;;;;5.78;40.38;100188.54;108081;1253;69327;-66
2024/03/09 04:16:29;;;;;;;46.90;18.60;;;;;;;5.85;40.30;100189.81;108117;1254;73093;-66
2024/03/09 04:18:56;;;;;;;41.00;18.70;;;;;;;5.96;40.16;100193.64;108054;1253;60867;-66
2024/03/09 04:21:24;;;;;;;46.60;19.30;;;;;;;5.78;40.36;100201.59;108157;1253;60235;-66
2024/03/09 04:23:52;;;;;;;38.40;17.60;;;;;;;5.74;40.69;100204.44;108160;1254;73854;-67
2024/03/09 04:26:19;;;;;;;44.50;18.70;;;;;;;5.96;40.48;100205.17;108047;1253;70320;-66
2024/03/09 04:28:46;;;;;;;44.30;18.80;;;;;;;5.99;40.41;100206.68;108059;1254;71406;-66
2024/03/09 04:31:15;;;;;;;48.60;19.30;;;;;;;6.06;40.24;100210.92;108091;1252;59699;-66
2024/03/09 04:33:43;;;;;;;42.90;18.50;;;;;;;5.95;40.50;100214.05;108078;1254;59802;-66
2024/03/09 04:36:11;;;;;;;43.20;18.40;;;;;;;5.86;40.66;100215.56;108190;1252;72576;-66
2024/03/09 04:38:39;;;;;;;40.80;17.30;;;;;;;5.90;40.65;100215.86;108028;1258;69930;-66
2024/03/09 04:41:07;;;;;;;39.50;17.00;;;;;;;5.93;40.75;100213.71;108078;1253;72729;-66
2024/03/09 04:43:38;;;;;;;40.30;18.20;;;;;;;6.07;40.63;100217.87;108117;1254;60445;-67
2024/03/09 04:46:07;;;;;;;40.30;16.50;;;;;;;6.21;40.44;100218.68;108150;1253;60217;-66
2024/03/09 04:48:35;;;;;;;42.80;17.40;;;;;;;6.34;40.36;100220.02;108138;1254;72621;-66
2024/03/09 04:51:02;;;;;;;38.10;17.10;;;;;;;6.36;40.44;100218.92;108120;1254;70298;-66
2024/03/09 04:53:30;;;;;;;39.50;17.00;;;;;;;6.40;40.46;100222.00;108141;1253;71207;-66
2024/03/09 04:55:58;;;;;;;37.20;17.40;;;;;;;6.43;40.46;100224.90;108081;1252;61640;-66
2024/03/09 04:58:28;;;;;;;42.00;17.60;;;;;;;6.50;40.55;100228.27;108100;1253;60424;-66
2024/03/09 05:00:56;;;;;;;41.70;16.90;;;;;;;6.60;40.39;100230.17;108123;1253;72642;-66
2024/03/09 05:03:24;;;;;;;39.20;17.30;;;;;;;6.67;40.62;100234.05;108103;1254;69206;-66
2024/03/09 05:05:51;;;;;;;34.00;16.70;;;;;;;6.73;40.47;100236.02;108128;1254;71358;-66
2024/03/09 05:08:19;;;;;;;49.70;17.30;;;;;;;6.75;40.63;100236.67;108120;1253;61596;-65
2024/03/09 05:10:47;;;;;;;43.30;17.20;;;;;;;6.78;40.73;100236.29;108172;1259;60315;-62
2024/03/09 05:13:14;;;;;;;40.90;17.00;;;;;;;6.86;40.80;100241.52;108160;1254;73863;-65
2024/03/09 05:15:42;;;;;;;43.80;18.30;;;;;;;6.92;40.82;100244.73;108064;1254;69413;-66
2024/03/09 05:18:11;;;;;;;47.30;19.70;;;;;;;7.05;40.96;100244.97;108130;1253;71829;-66
2024/03/09 05:20:39;;;;;;;49.50;19.80;;;;;;;7.30;41.04;100248.81;108033;1254;61619;-66
2024/03/09 05:23:09;;;;;;;43.30;18.20;;;;;;;7.96;41.71;100251.85;108080;1253;60281;-66
2024/03/09 05:25:42;;;;;;;41.30;17.10;;;;;;;8.82;41.26;100251.55;108089;1253;72536;-64
2024/03/09 05:28:12;;;;;;;38.90;16.10;;;;;;;9.70;40.33;100252.12;108127;1254;69991;-65
2024/03/09 05:30:43;;;;;;;39.50;16.00;;;;;;;10.60;39.50;100254.95;108122;1254;72663;-67
2024/03/09 05:33:11;;;;;;;36.70;15.10;;;;;;;11.65;37.95;100252.98;108097;1252;60317;-66
2024/03/09 05:35:40;;;;;;;34.10;15.00;;;;;;;12.53;36.41;100254.31;108092;1252;60505;-69
2024/03/09 05:38:08;;;;;;;32.80;14.40;;;;;;;13.26;35.25;100256.02;108125;1256;73835;-67
2024/03/09 05:40:37;;;;;;;31.10;13.80;;;;;;;14.22;34.20;100249.48;108077;1253;70202;-67
2024/03/09 05:43:11;;;;;;;32.40;13.90;;;;;;;14.83;33.11;100253.66;108082;1258;72644;-67
2024/03/09 05:45:41;;;;;;;27.80;12.50;;;;;;;15.32;32.29;100254.17;108134;1254;60569;-65
2024/03/09 05:48:08;;;;;;;22.80;11.10;;;;;;;16.00;31.65;100258.01;108060;1257;59515;-67
2024/03/09 05:50:37;;;;;;;27.20;10.70;;;;;;;16.79;30.31;100263.69;108119;1253;74074;-67
2024/03/09 05:53:06;;;;;;;18.80;9.80;;;;;;;17.17;29.38;100261.70;108178;1253;70111;-66
2024/03/09 05:55:35;;;;;;;18.20;9.30;;;;;;;17.65;28.60;100262.63;108031;1254;71897;-67
2024/03/09 05:58:03;;;;;;;19.30;8.90;;;;;;;17.97;27.89;100261.95;108046;1254;60538;-67
2024/03/09 06:00:31;;;;;;;15.70;8.00;;;;;;;18.58;27.27;100257.48;108094;1253;60488;-67
2024/03/09 06:03:06;;;;;;;22.70;9.70;;;;;;;19.12;26.64;100256.16;108065;1254;72580;-67
2024/03/09 06:05:35;;;;;;;17.60;8.60;;;;;;;19.28;25.87;100255.55;108001;1256;68706;-68
2024/03/09 06:08:03;;;;;;;16.70;9.50;;;;;;;19.61;25.49;100256.19;108022;1254;71039;-67
2024/03/09 06:10:31;;;;;;;17.00;9.20;;;;;;;20.08;25.25;100258.27;108020;1254;60661;-67
2024/03/09 06:13:05;;;;;;;19.30;9.70;;;;;;;20.54;24.42;100258.92;108096;1258;59156;-67
2024/03/09 06:15:33;;;;;;;21.30;10.40;;;;;;;20.73;23.52;100259.60;108101;1253;73840;-67
2024/03/09 06:18:01;;;;;;;17.20;9.70;;;;;;;20.81;23.35;100260.48;108133;1254;70273;-67
2024/03/09 06:20:32;;;;;;;18.90;10.00;;;;;;;20.88;23.18;100262.23;107963;1253;71707;-68
2024/03/09 06:23:00;;;;;;;16.90;10.00;;;;;;;20.81;22.97;100257.73;108052;1254;60430;-68
2024/03/09 06:25:29;;;;;;;21.60;10.00;;;;;;;20.72;22.77;100260.02;108057;1255;60264;-68
2024/03/09 06:28:02;;;;;;;18.40;9.60;;;;;;;20.90;23.02;100265.23;108112;1254;73879;-69
2024/03/09 06:30:30;;;;;;;25.70;12.70;;;;;;;21.00;22.42;100265.36;108000;1253;72173;-69
2024/03/09 06:32:59;;;;;;;14.00;9.00;;;;;;;20.97;22.35;100268.26;108140;1253;71467;-69
2024/03/09 06:35:31;;;;;;;17.40;9.80;;;;;;;21.02;22.33;100270.58;108160;1254;60303;-67
2024/03/09 06:38:07;;;;;;;35.20;16.40;;;;;;;21.03;22.06;100268.70;108101;1254;60236;-68
2024/03/09 06:40:37;;;;;;;21.00;11.30;;;;;;;20.77;22.21;100270.00;108179;1254;72745;-66
2024/03/09 06:43:09;;;;;;;19.90;10.00;;;;;;;20.76;22.56;100271.84;108121;1254;70152;-68
2024/03/09 06:45:37;;;;;;;20.50;10.30;;;;;;;21.34;22.02;100276.63;108140;1254;71391;-67
2024/03/09 06:48:06;;;;;;;20.30;11.00;;;;;;;21.36;21.95;100271.25;108165;1254;60261;-67
2024/03/09 06:50:37;;;;;;;20.80;11.20;;;;;;;21.12;21.89;100278.02;108116;1254;60422;-68
2024/03/09 06:53:04;;;;;;;17.20;10.10;;;;;;;20.68;22.42;100276.03;108102;1254;73659;-67
2024/03/09 06:55:32;;;;;;;23.80;12.30;;;;;;;20.16;23.01;100277.30;108123;1254;70280;-67
2024/03/09 06:58:03;;;;;;;18.00;10.10;;;;;;;19.61;23.31;100282.52;108023;1254;72679;-67
2024/03/09 07:00:34;;;;;;;23.40;12.70;;;;;;;19.14;23.82;100288.88;108017;1254;60536;-66
2024/03/09 07:03:04;;;;;;;39.90;15.00;;;;;;;18.62;24.50;100289.44;108079;1253;60443;-67
2024/03/09 07:05:36;;;;;;;32.70;13.70;;;;;;;18.11;25.04;100302.41;108068;1254;74979;-67
2024/03/09 07:08:09;;;;;;;25.70;12.30;;;;;;;17.71;25.56;100303.55;108048;1254;70062;-67
2024/03/09 07:10:37;;;;;;;35.50;14.00;;;;;;;17.12;26.17;100307.28;108051;1254;71466;-67
2024/03/09 07:13:05;;;;;;;29.50;13.00;;;;;;;16.89;26.70;100310.61;108033;1254;60827;-67
2024/03/09 07:15:33;;;;;;;20.40;10.40;;;;;;;16.47;27.26;100311.46;108173;1252;59253;-67
2024/03/09 07:18:02;;;;;;;41.10;15.10;;;;;;;16.00;27.92;100312.08;108096;1254;73844;-67
2024/03/09 07:20:33;;;;;;;27.30;11.60;;;;;;;15.57;28.53;100309.98;108036;1254;69044;-67
2024/03/09 07:23:01;;;;;;;39.70;14.30;;;;;;;15.22;28.95;100315.38;108038;1254;72433;-67
2024/03/09 07:25:30;;;;;;;45.70;15.00;;;;;;;14.85;29.69;100314.38;108036;1253;59224;-67
2024/03/09 07:27:59;;;;;;;24.40;12.00;;;;;;;14.72;29.94;100317.67;108048;1253;60329;-67
2024/03/09 07:30:27;;;;;;;30.30;14.80;;;;;;;14.69;30.01;100318.70;108077;1254;73929;-67
2024/03/09 07:32:55;;;;;;;38.20;13.40;;;;;;;14.52;30.25;100323.61;108111;1254;70032;-65
2024/03/09 07:35:29;;;;;;;68.10;22.10;;;;;;;14.36;30.54;100322.61;108032;1253;71520;-67
2024/03/09 07:38:00;;;;;;;23.00;11.90;;;;;;;14.29;30.71;100324.73;108110;1254;60332;-67
2024/03/09 07:40:33;;;;;;;25.20;11.70;;;;;;;14.27;31.02;100327.14;108076;1254;60316;-66
2024/03/09 07:43:02;;;;;;;28.70;11.80;;;;;;;14.31;30.91;100328.52;108046;1254;73032;-66
2024/03/09 07:45:30;;;;;;;20.70;9.00;;;;;;;14.40;30.73;100329.28;108117;1258;69619;-66
2024/03/09 07:48:01;;;;;;;22.80;11.10;;;;;;;14.52;30.61;100332.10;108066;1255;72977;-67
2024/03/09 07:50:29;;;;;;;28.50;12.40;;;;;;;14.60;30.56;100332.23;108105;1254;60533;-67
2024/03/09 07:52:57;;;;;;;22.50;11.50;;;;;;;14.61;30.58;100335.52;108035;1254;60337;-67
2024/03/09 07:55:26;;;;;;;31.80;13.50;;;;;;;14.47;30.71;100339.20;108082;1254;71635;-67
2024/03/09 07:58:00;;;;;;;28.50;12.00;;;;;;;14.31;31.07;100342.80;108093;1254;69019;-67
2024/03/09 08:00:49;;;;;;;26.70;12.30;;;;;;;14.38;31.06;100344.41;108106;1259;71923;-66
2024/03/09 08:03:17;;;;;;;23.40;10.80;;;;;;;14.32;31.18;100347.05;108099;1254;60339;-67
2024/03/09 08:05:45;;;;;;;25.70;11.80;;;;;;;14.43;31.13;100344.72;108095;1252;60194;-67
2024/03/09 08:08:12;;;;;;;62.90;31.00;;;;;;;14.36;31.25;100345.39;108088;1253;73875;-67
2024/03/09 08:10:46;;;;;;;37.00;16.90;;;;;;;14.28;31.37;100348.63;108098;1253;69166;-66
2024/03/09 08:13:19;;;;;;;53.60;15.80;;;;;;;14.26;31.43;100348.17;108129;1254;72302;-67
2024/03/09 08:15:46;;;;;;;40.90;14.40;;;;;;;14.27;31.46;100349.89;108061;1253;60405;-67
2024/03/09 08:18:14;;;;;;;34.80;13.90;;;;;;;14.13;31.68;100355.69;107967;1253;60392;-67
2024/03/09 08:20:42;;;;;;;27.00;13.50;;;;;;;14.12;31.68;100357.54;108153;1256;74247;-68
2024/03/09 08:23:09;;;;;;;32.30;13.30;;;;;;;14.10;31.84;100356.73;108082;1254;69191;-67
2024/03/09 08:25:38;;;;;;;24.20;10.70;;;;;;;14.11;31.93;100356.70;108127;1254;72556;-67
2024/03/09 08:28:06;;;;;;;33.10;14.20;;;;;;;14.17;31.97;100353.05;108085;1254;60408;-66
2024/03/09 08:30:33;;;;;;;26.40;11.60;;;;;;;14.21;31.98;100350.73;108132;1253;62659;-66
2024/03/09 08:33:01;;;;;;;36.80;17.10;;;;;;;14.20;31.91;100356.27;108147;1253;73331;-67
2024/03/09 08:35:33;;;;;;;24.60;12.40;;;;;;;14.32;31.81;100354.79;108143;1253;70482;-67
2024/03/09 08:38:01;;;;;;;21.80;12.00;;;;;;;14.26;31.97;100354.36;107971;1252;72445;-67
2024/03/09 08:40:32;;;;;;;20.30;10.50;;;;;;;14.29;31.96;100354.24;108026;1258;60412;-67
2024/03/09 08:42:59;;;;;;;24.40;10.50;;;;;;;14.22;32.00;100352.59;108077;1253;60419;-66
2024/03/09 08:45:27;;;;;;;28.10;12.50;;;;;;;14.31;31.81;100355.89;108045;1259;73787;-67
2024/03/09 08:47:56;;;;;;;27.20;12.30;;;;;;;14.50;31.74;100351.41;108000;1253;70375;-66
2024/03/09 08:50:25;;;;;;;26.30;11.70;;;;;;;14.61;31.82;100354.25;108036;1254;72703;-67
2024/03/09 08:52:53;;;;;;;32.30;13.50;;;;;;;14.83;31.65;100353.84;108046;1254;60460;-67
2024/03/09 08:55:21;;;;;;;31.70;12.50;;;;;;;14.88;31.45;100349.55;108057;1252;60444;-67
2024/03/09 08:57:49;;;;;;;34.40;13.10;;;;;;;14.92;31.27;100356.91;108161;1254;72662;-67
2024/03/09 09:00:19;;;;;;;29.10;11.70;;;;;;;15.04;31.32;100358.60;108060;1253;69364;-66
2024/03/09 09:02:48;;;;;;;31.70;14.60;;;;;;;15.24;31.10;100359.30;108067;1253;71586;-67
2024/03/09 09:05:18;;;;;;;27.70;12.10;;;;;;;15.31;31.12;100358.45;108116;1254;60336;-66
2024/03/09 09:07:46;;;;;;;23.80;11.80;;;;;;;15.33;30.93;100360.47;108121;1253;60338;-66
2024/03/09 09:10:15;;;;;;;29.90;12.60;;;;;;;15.39;30.66;100361.72;108064;1254;72573;-67
2024/03/09 09:12:49;;;;;;;22.00;12.00;;;;;;;15.39;30.81;100363.70;108100;1254;72775;-67
2024/03/09 09:15:16;;;;;;;23.70;11.70;;;;;;;15.59;30.55;100364.38;108057;1254;71458;-67
2024/03/09 09:17:45;;;;;;;24.30;11.00;;;;;;;15.51;30.40;100365.00;108081;1254;60480;-67
2024/03/09 09:20:12;;;;;;;27.90;12.60;;;;;;;15.33;30.61;100362.02;108106;1253;60629;-67
2024/03/09 09:22:43;;;;;;;28.80;12.70;;;;;;;15.36;30.69;100362.77;108145;1258;72424;-66
2024/03/09 09:25:12;;;;;;;19.30;10.20;;;;;;;15.60;30.51;100365.04;108138;1253;69944;-67
2024/03/09 09:27:43;;;;;;;30.90;11.20;;;;;;;15.68;30.14;100366.35;108092;1253;74895;-67
2024/03/09 09:30:11;;;;;;;26.90;12.10;;;;;;;15.75;30.11;100363.88;108198;1254;60450;-67
2024/03/09 09:32:40;;;;;;;20.00;10.30;;;;;;;15.85;30.14;100364.61;108132;1254;60537;-66
2024/03/09 09:35:11;;;;;;;21.20;11.70;;;;;;;15.97;30.00;100369.39;108166;1254;72691;-67
2024/03/09 09:37:40;;;;;;;16.00;9.60;;;;;;;16.11;29.88;100371.32;108075;1254;70113;-68
2024/03/09 09:40:08;;;;;;;21.90;9.50;;;;;;;16.18;29.22;100373.55;108110;1254;72459;-69
2024/03/09 09:42:36;;;;;;;24.20;10.40;;;;;;;16.25;29.15;100374.08;108149;1254;60305;-68
2024/03/09 09:45:05;;;;;;;21.80;10.70;;;;;;;16.04;29.52;100379.83;107988;1259;62402;-68
2024/03/09 09:47:33;;;;;;;25.20;11.00;;;;;;;15.96;29.52;100375.86;108169;1254;72578;-68
2024/03/09 09:50:01;;;;;;;25.90;12.40;;;;;;;15.93;29.74;100379.71;108096;1254;71385;-68
2024/03/09 09:52:30;;;;;;;25.60;11.30;;;;;;;15.98;29.93;100380.16;108017;1254;71141;-67
2024/03/09 09:54:58;;;;;;;25.10;12.70;;;;;;;16.17;29.73;100382.47;108134;1254;60335;-67
2024/03/09 09:57:26;;;;;;;21.10;9.90;;;;;;;16.14;29.88;100384.56;108138;1259;60334;-67
2024/03/09 09:59:54;;;;;;;21.10;10.60;;;;;;;16.12;29.73;100379.55;108106;1254;73791;-67
2024/03/09 10:02:22;;;;;;;21.20;10.90;;;;;;;16.20;29.78;100379.45;108078;1253;69379;-67
2024/03/09 10:04:51;;;;;;;23.20;10.80;;;;;;;16.26;29.79;100375.94;108100;1253;73626;-66
2024/03/09 10:07:19;;;;;;;21.00;11.40;;;;;;;16.30;29.60;100375.73;108095;1254;60393;-67
2024/03/09 10:09:48;;;;;;;25.00;11.00;;;;;;;16.50;29.61;100372.79;108105;1254;60493;-67
2024/03/09 10:12:23;;;;;;;18.80;9.90;;;;;;;16.64;29.36;100372.15;108111;1254;73850;-68
2024/03/09 10:14:52;;;;;;;29.10;10.90;;;;;;;16.70;29.15;100369.17;108082;1254;69269;-67
2024/03/09 10:17:20;;;;;;;28.70;12.70;;;;;;;16.65;29.33;100369.25;108163;1254;74885;-67
2024/03/09 10:19:49;;;;;;;24.70;11.40;;;;;;;16.81;29.17;100370.61;108123;1254;59260;-67
2024/03/09 10:22:16;;;;;;;20.90;10.10;;;;;;;17.11;28.99;100363.02;108036;1254;60124;-67
2024/03/09 10:24:51;;;;;;;27.30;11.60;;;;;;;17.32;28.75;100363.86;108040;1258;73720;-68
2024/03/09 10:27:26;;;;;;;22.00;12.60;;;;;;;17.50;28.33;100361.52;108100;1254;70108;-67
2024/03/09 10:30:13;;;;;;;23.00;10.00;;;;;;;17.39;28.24;100361.29;108025;1254;72541;-68
2024/03/09 10:32:41;;;;;;;18.30;9.30;;;;;;;17.37;28.42;100360.35;108051;1253;61634;-68
2024/03/09 10:35:10;;;;;;;17.50;8.90;;;;;;;17.43;28.07;100361.75;108043;1253;60338;-68
2024/03/09 10:37:39;;;;;;;21.60;9.50;;;;;;;17.67;27.88;100362.06;108121;1254;75356;-66
2024/03/09 10:40:12;;;;;;;20.50;9.70;;;;;;;17.87;27.77;100357.63;108032;1254;68284;-67
2024/03/09 10:42:47;;;;;;;19.90;10.90;;;;;;;18.09;27.77;100356.90;108126;1254;73745;-67
2024/03/09 10:45:22;;;;;;;24.20;10.80;;;;;;;18.55;27.26;100354.96;108095;1254;60438;-67
2024/03/09 10:47:54;;;;;;;15.80;7.30;;;;;;;18.57;26.31;100351.45;108181;1254;60306;-67
2024/03/09 10:50:26;;;;;;;15.50;7.70;;;;;;;18.39;26.27;100352.30;108236;1256;72953;-67
2024/03/09 10:53:07;;;;;;;21.90;8.60;;;;;;;18.48;26.48;100353.15;108130;1254;70255;-67
2024/03/09 10:57:13;;;;;;;16.40;6.60;;;;;;;18.10;26.96;100354.11;104906;1289;600881;-67
2024/03/09 10:59:41;;;;;;;11.40;6.10;;;;;;;19.46;25.11;100352.11;107340;1266;60152;-67
2024/03/09 11:02:08;;;;;;;21.20;8.80;;;;;;;19.75;25.07;100345.86;107240;1264;60533;-67
2024/03/09 11:04:36;;;;;;;16.10;7.50;;;;;;;19.78;24.46;100343.33;107212;1265;72351;-67
2024/03/09 11:07:04;;;;;;;17.10;7.10;;;;;;;19.87;24.31;100341.95;107121;1266;70515;-68
2024/03/09 11:09:31;;;;;;;18.50;8.30;;;;;;;19.75;24.05;100340.17;107116;1267;74983;-67
2024/03/09 11:12:02;;;;;;;15.50;8.30;;;;;;;19.87;23.99;100340.73;107107;1266;173896;-67
2024/03/09 11:14:33;;;;;;;23.00;8.90;;;;;;;20.06;23.86;100344.00;107250;1263;60023;-67
2024/03/09 11:17:05;;;;;;;22.90;12.30;;;;;;;20.14;23.54;100343.52;107281;1268;72492;-69